Time;durP1;ratioP1;P1;durP2;ratioP2;P2;SDS_P1;SDS_P2;PMS_P1;PMS_P2;Temp;Humidity;BMP_temperature;BMP_pressure;BME280_temperature;BME280_humidity;BME280_pressure;Samples;Min_cycle;Max_cycle;Signal;HPM_P1;HPM_P2
2024/02/21 00:00:25;;;;;;;21.05;8.15;;;11.90;99.90;;;;;;7401058;19;20023;-75
2024/02/21 00:02:53;;;;;;;37.15;7.68;;;11.90;99.90;;;;;;7379274;19;20014;-76
2024/02/21 00:05:24;;;;;;;27.90;9.38;;;11.90;99.90;;;;;;7378985;19;20382;-75
2024/02/21 00:07:53;;;;;;;19.13;7.63;;;11.90;99.90;;;;;;7379486;19;20015;-75
2024/02/21 00:10:24;;;;;;;31.77;9.23;;;11.90;99.90;;;;;;7380379;19;20025;-75
2024/02/21 00:12:56;;;;;;;19.05;7.95;;;11.90;99.90;;;;;;7380967;19;20014;-75
2024/02/21 00:15:24;;;;;;;32.22;10.55;;;11.90;99.90;;;;;;7402527;19;20074;-74
2024/02/21 00:17:56;;;;;;;25.27;9.38;;;11.90;99.90;;;;;;7388462;19;20007;-74
2024/02/21 00:20:26;;;;;;;21.33;9.30;;;11.90;99.90;;;;;;7391551;19;20031;-76
2024/02/21 00:22:56;;;;;;;27.45;9.48;;;11.90;99.90;;;;;;7392644;19;20010;-76
2024/02/21 00:25:27;;;;;;;23.73;8.57;;;11.90;99.90;;;;;;7390982;19;20078;-75
2024/02/21 00:27:56;;;;;;;20.08;7.30;;;11.90;99.90;;;;;;7391219;19;20310;-76
2024/02/21 00:30:25;;;;;;;23.58;7.85;;;11.90;99.90;;;;;;7407688;19;20007;-76
2024/02/21 00:32:53;;;;;;;18.70;6.38;;;11.90;99.90;;;;;;7379415;19;20074;-75
2024/02/21 00:35:22;;;;;;;14.88;7.03;;;11.90;99.90;;;;;;7379416;19;20006;-76
2024/02/21 00:37:51;;;;;;;19.63;7.18;;;11.90;99.90;;;;;;7380313;19;20567;-75
2024/02/21 00:40:21;;;;;;;21.63;7.00;;;11.80;99.90;;;;;;7376672;19;20102;-75
2024/02/21 00:42:54;;;;;;;21.33;8.63;;;11.90;99.90;;;;;;7398318;19;20014;-75
2024/02/21 00:45:23;;;;;;;27.15;8.77;;;11.80;99.90;;;;;;7399363;19;20007;-75
2024/02/21 00:47:52;;;;;;;23.85;9.55;;;11.80;99.90;;;;;;7377565;19;20251;-75
2024/02/21 00:50:20;;;;;;;27.77;8.07;;;11.80;99.90;;;;;;7379471;19;20015;-75
2024/02/21 00:52:49;;;;;;;20.48;7.18;;;11.80;99.90;;;;;;7378755;19;20042;-75
2024/02/21 00:55:20;;;;;;;19.98;6.90;;;11.80;99.90;;;;;;7378021;19;20066;-75
2024/02/21 00:57:55;;;;;;;25.10;8.23;;;11.70;99.90;;;;;;7399005;19;20261;-75
2024/02/21 01:00:24;;;;;;;17.63;7.38;;;11.70;99.90;;;;;;7377657;19;20496;-75
2024/02/21 01:02:55;;;;;;;27.48;7.80;;;11.60;99.90;;;;;;7379408;19;20007;-75
2024/02/21 01:05:24;;;;;;;20.30;7.15;;;11.60;99.90;;;;;;7379602;19;20111;-76
2024/02/21 01:07:55;;;;;;;24.65;8.93;;;11.70;99.90;;;;;;7380637;19;20009;-75
2024/02/21 01:10:23;;;;;;;23.98;8.45;;;11.70;99.90;;;;;;7386483;19;20015;-76
2024/02/21 01:12:54;;;;;;;18.95;6.38;;;11.70;99.90;;;;;;7405088;19;20070;-76
2024/02/21 01:15:23;;;;;;;17.08;6.25;;;11.60;99.90;;;;;;7386421;19;20074;-76
2024/02/21 01:17:55;;;;;;;17.92;7.03;;;11.70;99.90;;;;;;7385937;19;20006;-76
2024/02/21 01:20:23;;;;;;;24.15;6.50;;;11.70;99.90;;;;;;7382397;19;20009;-76
2024/02/21 01:22:52;;;;;;;17.67;5.90;;;11.70;99.90;;;;;;7386633;19;20082;-75
2024/02/21 01:25:23;;;;;;;25.40;6.95;;;11.60;99.90;;;;;;7384699;19;20017;-76
2024/02/21 01:27:54;;;;;;;26.92;7.60;;;11.60;99.90;;;;;;7406311;19;20066;-75
2024/02/21 01:30:23;;;;;;;30.00;9.73;;;11.50;99.90;;;;;;7385225;19;20058;-76
2024/02/21 01:32:52;;;;;;;20.63;6.95;;;11.50;99.90;;;;;;7385383;19;20017;-76
2024/02/21 01:35:21;;;;;;;19.75;7.53;;;11.40;99.90;;;;;;7383506;19;20289;-75
2024/02/21 01:37:51;;;;;;;28.02;8.43;;;11.40;99.90;;;;;;7383061;19;20263;-75
2024/02/21 01:40:20;;;;;;;22.17;7.50;;;11.40;99.90;;;;;;7384013;19;20002;-76
2024/02/21 01:42:49;;;;;;;17.15;7.18;;;11.50;99.90;;;;;;7407985;19;20007;-75
2024/02/21 01:45:20;;;;;;;26.38;7.47;;;11.50;99.90;;;;;;7383476;19;20062;-75
2024/02/21 01:47:49;;;;;;;18.48;7.82;;;11.50;99.90;;;;;;7383061;19;20009;-75
2024/02/21 01:50:19;;;;;;;21.30;7.25;;;11.50;99.90;;;;;;7383433;19;20403;-76
2024/02/21 01:52:51;;;;;;;14.30;6.03;;;11.50;99.90;;;;;;7381533;19;20007;-75
2024/02/21 01:55:20;;;;;;;22.90;6.93;;;11.60;99.90;;;;;;7385567;19;20647;-75
2024/02/21 01:57:49;;;;;;;22.40;6.68;;;11.60;99.90;;;;;;7405856;19;20017;-75
2024/02/21 02:00:22;;;;;;;21.77;6.90;;;11.60;99.90;;;;;;7383021;19;20067;-75
2024/02/21 02:02:51;;;;;;;28.83;7.05;;;11.60;99.90;;;;;;7382872;19;20353;-74
2024/02/21 02:05:21;;;;;;;25.20;8.05;;;11.60;99.90;;;;;;7383699;19;20027;-74
2024/02/21 02:07:51;;;;;;;22.27;10.07;;;11.60;99.90;;;;;;7383592;19;20361;-75
2024/02/21 02:10:20;;;;;;;23.13;9.02;;;11.60;99.90;;;;;;7385588;19;20006;-74
2024/02/21 02:12:49;;;;;;;26.67;8.57;;;11.60;99.90;;;;;;7407717;19;20021;-75
2024/02/21 02:15:23;;;;;;;21.60;9.07;;;11.60;99.90;;;;;;7382236;19;20025;-75
2024/02/21 02:17:51;;;;;;;34.90;11.20;;;11.60;99.90;;;;;;7382866;19;20014;-75
2024/02/21 02:20:20;;;;;;;24.25;9.52;;;11.60;99.90;;;;;;7381380;19;20070;-75
2024/02/21 02:22:51;;;;;;;25.90;10.00;;;11.60;99.90;;;;;;7383558;19;20095;-75
2024/02/21 02:25:23;;;;;;;29.90;10.00;;;11.60;99.90;;;;;;7385984;19;20267;-75
2024/02/21 02:27:52;;;;;;;28.67;8.07;;;11.50;99.90;;;;;;7404630;19;20099;-75
2024/02/21 02:30:21;;;;;;;18.42;7.60;;;11.60;99.90;;;;;;7381731;19;20034;-75
2024/02/21 02:32:49;;;;;;;26.20;7.47;;;11.60;99.90;;;;;;7384315;19;20003;-75
2024/02/21 02:35:23;;;;;;;24.15;7.35;;;11.70;99.90;;;;;;7383093;19;20016;-75
2024/02/21 02:37:52;;;;;;;14.30;6.95;;;11.70;99.90;;;;;;7382951;19;20038;-75
2024/02/21 02:40:23;;;;;;;26.45;7.70;;;11.70;99.90;;;;;;7380642;19;20013;-74
2024/02/21 02:42:54;;;;;;;27.50;7.38;;;11.70;99.90;;;;;;7404103;19;20074;-74
2024/02/21 02:45:26;;;;;;;16.02;8.02;;;11.80;99.90;;;;;;7379802;19;20027;-74
2024/02/21 02:47:54;;;;;;;;;;;11.90;99.90;;;;;;7379913;19;20011;-75
2024/02/21 02:50:23;;;;;;;18.42;8.07;;;11.90;99.90;;;;;;7378635;19;19911;-74
2024/02/21 02:52:52;;;;;;;30.70;8.63;;;11.80;99.90;;;;;;7382541;19;20023;-74
2024/02/21 02:55:23;;;;;;;20.88;8.70;;;11.80;99.90;;;;;;7383686;19;20023;-74
2024/02/21 02:57:55;;;;;;;;;;;11.80;99.90;;;;;;7405197;19;20070;-75
2024/02/21 03:00:27;;;;;;;29.17;7.65;;;11.80;99.90;;;;;;7381353;19;19918;-75
2024/02/21 03:02:56;;;;;;;26.80;7.07;;;11.80;99.90;;;;;;7382828;19;20007;-75
2024/02/21 03:05:25;;;;;;;30.02;7.03;;;11.80;99.90;;;;;;7383315;19;20078;-75
2024/02/21 03:07:53;;;;;;;15.80;6.88;;;11.90;99.90;;;;;;7385226;19;20054;-74
2024/02/21 03:10:25;;;;;;;18.60;6.47;;;11.80;99.90;;;;;;7385842;19;20013;-75
2024/02/21 03:12:54;;;;;;;17.60;7.20;;;11.90;99.90;;;;;;7409043;19;20021;-75
2024/02/21 03:15:22;;;;;;;23.10;9.18;;;11.90;99.90;;;;;;7385301;19;20338;-75
2024/02/21 03:17:51;;;;;;;28.73;10.52;;;11.90;99.90;;;;;;7383843;19;20074;-75
2024/02/21 03:20:20;;;;;;;22.77;9.57;;;11.90;99.90;;;;;;7379410;19;20062;-75
2024/02/21 03:22:48;;;;;;;28.05;9.70;;;11.90;99.90;;;;;;7380079;19;20070;-76
2024/02/21 03:25:17;;;;;;;27.85;9.65;;;11.90;99.90;;;;;;7382702;19;20014;-76
2024/02/21 03:27:48;;;;;;;27.85;10.50;;;11.90;99.90;;;;;;7401163;19;20095;-76
2024/02/21 03:30:17;;;;;;;18.30;9.52;;;11.90;99.90;;;;;;7380749;19;20014;-76
2024/02/21 03:32:46;;;;;;;24.88;9.18;;;11.90;99.90;;;;;;7378511;19;20002;-75
2024/02/21 03:35:15;;;;;;;35.60;8.82;;;11.90;99.90;;;;;;7381079;19;20067;-77
2024/02/21 03:37:43;;;;;;;28.90;8.98;;;11.90;99.90;;;;;;7380056;19;20496;-75
2024/02/21 03:40:13;;;;;;;32.60;8.98;;;11.90;99.90;;;;;;7379403;19;20007;-76
2024/02/21 03:42:42;;;;;;;23.70;8.60;;;11.90;99.90;;;;;;7401146;19;20010;-75
2024/02/21 03:45:13;;;;;;;28.00;9.20;;;11.90;99.90;;;;;;7378411;19;20003;-75
2024/02/21 03:47:42;;;;;;;27.63;8.55;;;11.90;99.90;;;;;;7377452;19;20018;-75
2024/02/21 03:50:11;;;;;;;23.65;10.23;;;11.90;99.90;;;;;;7380701;19;20003;-75
2024/02/21 03:52:40;;;;;;;27.70;10.88;;;11.90;99.90;;;;;;7381401;19;20070;-75
2024/02/21 03:55:10;;;;;;;25.70;10.40;;;11.90;99.90;;;;;;7381121;19;20015;-75
2024/02/21 03:57:39;;;;;;;19.45;9.27;;;11.90;99.90;;;;;;7399995;19;20034;-75
2024/02/21 04:00:11;;;;;;;25.67;10.90;;;11.90;99.90;;;;;;7379254;19;20292;-75
2024/02/21 04:02:42;;;;;;;28.73;12.63;;;11.90;99.90;;;;;;7380744;19;20007;-75
2024/02/21 04:05:12;;;;;;;25.15;8.50;;;11.90;99.90;;;;;;7379107;19;20025;-75
2024/02/21 04:07:42;;;;;;;21.83;8.48;;;11.90;99.90;;;;;;7378687;19;20365;-75
2024/02/21 04:10:17;;;;;;;18.42;8.40;;;11.90;99.90;;;;;;7380840;19;20027;-75
2024/02/21 04:12:52;;;;;;;23.02;8.02;;;11.90;99.90;;;;;;7403563;19;20011;-75
2024/02/21 04:15:21;;;;;;;22.77;8.80;;;11.90;99.90;;;;;;7380000;19;20002;-74
2024/02/21 04:17:53;;;;;;;16.27;7.35;;;11.90;99.90;;;;;;7377851;19;20629;-74
2024/02/21 04:20:26;;;;;;;24.70;9.35;;;11.90;99.90;;;;;;7377477;19;20003;-74
2024/02/21 04:22:54;;;;;;;26.58;11.02;;;11.90;99.90;;;;;;7378512;19;20002;-74
2024/02/21 04:25:23;;;;;;;28.10;11.75;;;11.90;99.90;;;;;;7379076;19;20023;-75
2024/02/21 04:27:54;;;;;;;25.95;10.50;;;11.90;99.90;;;;;;7401119;19;20112;-74
2024/02/21 04:30:23;;;;;;;20.60;10.33;;;11.90;99.90;;;;;;7378024;19;20020;-74
2024/02/21 04:32:54;;;;;;;27.75;9.98;;;11.90;99.90;;;;;;7378263;19;20006;-75
2024/02/21 04:35:23;;;;;;;26.35;8.35;;;11.90;99.90;;;;;;7378339;19;20014;-75
2024/02/21 04:37:52;;;;;;;19.17;8.45;;;11.90;99.90;;;;;;7377467;19;20101;-75
2024/02/21 04:40:21;;;;;;;30.95;9.05;;;11.90;99.90;;;;;;7377715;19;20019;-75
2024/02/21 04:42:49;;;;;;;21.00;8.68;;;11.80;99.90;;;;;;7399876;19;20006;-75
2024/02/21 04:45:18;;;;;;;28.05;9.57;;;11.80;99.90;;;;;;7376432;19;20370;-75
2024/02/21 04:47:47;;;;;;;23.13;9.25;;;11.80;99.90;;;;;;7377065;19;20010;-75
2024/02/21 04:50:18;;;;;;;26.50;10.07;;;11.80;99.90;;;;;;7377232;19;20022;-75
2024/02/21 04:52:47;;;;;;;;;;;11.80;99.90;;;;;;7381410;19;20077;-75
2024/02/21 04:55:15;;;;;;;26.48;9.73;;;11.90;99.90;;;;;;7382271;19;19934;-77
2024/02/21 04:57:44;;;;;;;33.33;12.05;;;11.80;99.90;;;;;;7402804;19;20022;-75
2024/02/21 05:00:14;;;;;;;34.30;10.25;;;11.80;99.90;;;;;;7377730;19;20144;-75
2024/02/21 05:02:42;;;;;;;29.63;9.50;;;11.80;99.90;;;;;;7379958;19;20062;-75
2024/02/21 05:05:11;;;;;;;24.13;8.80;;;11.90;99.90;;;;;;7377029;19;20011;-75
2024/02/21 05:07:42;;;;;;;21.88;8.88;;;11.80;99.90;;;;;;7380147;19;20112;-75
2024/02/21 05:10:12;;;;;;;27.73;9.85;;;11.80;99.90;;;;;;7379980;19;20011;-74
2024/02/21 05:12:40;;;;;;;22.92;9.18;;;11.80;99.90;;;;;;7403195;19;20014;-75
2024/02/21 05:15:10;;;;;;;29.42;9.38;;;11.80;99.90;;;;;;7375762;19;20327;-75
2024/02/21 05:17:38;;;;;;;20.20;8.90;;;11.80;99.90;;;;;;7380924;19;20271;-75
2024/02/21 05:20:09;;;;;;;21.77;10.80;;;11.70;99.90;;;;;;7378958;19;20078;-75
2024/02/21 05:22:37;;;;;;;29.70;11.55;;;11.70;99.90;;;;;;7378160;19;19998;-75
2024/02/21 05:25:10;;;;;;;25.77;10.48;;;11.70;99.90;;;;;;7377245;19;20421;-75
2024/02/21 05:27:38;;;;;;;37.95;11.65;;;11.70;99.90;;;;;;7401135;19;20011;-76
2024/02/21 05:30:09;;;;;;;26.55;11.75;;;11.80;99.90;;;;;;7377223;19;20070;-76
2024/02/21 05:32:41;;;;;;;33.28;10.98;;;11.70;99.90;;;;;;7379172;19;20010;-76
2024/02/21 05:35:10;;;;;;;25.23;9.43;;;11.70;99.90;;;;;;7376444;19;20453;-76
2024/02/21 05:37:39;;;;;;;23.42;9.05;;;11.70;99.90;;;;;;7377833;19;20281;-76
2024/02/21 05:40:13;;;;;;;24.70;9.25;;;11.70;99.90;;;;;;7375889;19;20017;-75
2024/02/21 05:42:42;;;;;;;23.58;9.38;;;11.80;99.90;;;;;;7400385;19;20021;-75
2024/02/21 05:45:11;;;;;;;22.80;8.57;;;11.80;99.90;;;;;;7378146;19;20061;-75
2024/02/21 05:47:43;;;;;;;22.95;9.10;;;11.80;99.90;;;;;;7378269;19;20014;-75
2024/02/21 05:50:13;;;;;;;20.90;9.50;;;11.80;99.90;;;;;;7377560;19;20019;-76
2024/02/21 05:52:42;;;;;;;23.88;11.63;;;11.80;99.90;;;;;;7381726;19;20056;-76
2024/02/21 05:55:15;;;;;;;22.17;11.02;;;11.80;99.90;;;;;;7384828;19;20007;-77
2024/02/21 05:57:44;;;;;;;73.65;32.35;;;11.80;99.90;;;;;;7414152;19;20003;-77
2024/02/21 06:00:16;;;;;;;39.97;14.80;;;11.80;99.90;;;;;;7389924;19;20007;-78
2024/02/21 06:02:48;;;;;;;30.63;12.20;;;11.80;99.90;;;;;;7390759;19;20015;-77
2024/02/21 06:05:16;;;;;;;27.23;10.35;;;11.80;99.90;;;;;;7398260;19;20019;-79
2024/02/21 06:07:45;;;;;;;27.33;8.65;;;11.80;99.90;;;;;;7394890;19;20143;-78
2024/02/21 06:10:16;;;;;;;22.50;8.25;;;11.70;99.90;;;;;;7388725;19;20011;-79
2024/02/21 06:12:45;;;;;;;26.23;9.57;;;11.70;99.90;;;;;;7404948;19;20010;-80
2024/02/21 06:15:14;;;;;;;23.88;8.27;;;11.70;99.90;;;;;;7383962;19;20011;-80
2024/02/21 06:17:43;;;;;;;19.48;8.95;;;11.80;99.90;;;;;;7386248;19;20101;-79
2024/02/21 06:20:12;;;;;;;17.95;7.88;;;11.80;99.90;;;;;;7386610;19;20011;-78
2024/02/21 06:22:41;;;;;;;23.85;9.30;;;11.80;99.90;;;;;;7387384;19;20007;-78
2024/02/21 06:25:10;;;;;;;17.63;8.75;;;11.70;99.90;;;;;;7385001;19;20369;-77
2024/02/21 06:27:44;;;;;;;22.05;8.52;;;11.80;99.90;;;;;;7403348;19;20059;-77
2024/02/21 06:30:14;;;;;;;29.00;9.68;;;11.80;99.90;;;;;;7383624;19;20007;-78
2024/02/21 06:32:42;;;;;;;24.02;9.90;;;11.70;99.90;;;;;;7385535;19;20024;-77
2024/02/21 06:35:11;;;;;;;17.25;8.00;;;11.80;99.90;;;;;;7382778;19;20082;-77
2024/02/21 06:37:40;;;;;;;22.15;7.80;;;11.80;99.90;;;;;;7382363;19;20283;-77
2024/02/21 06:40:10;;;;;;;22.33;7.05;;;11.80;99.90;;;;;;7383341;19;20015;-77
2024/02/21 06:42:41;;;;;;;16.38;7.30;;;11.80;99.90;;;;;;7402688;19;20011;-78
2024/02/21 06:45:11;;;;;;;15.45;6.30;;;11.80;99.90;;;;;;7384338;19;20054;-78
2024/02/21 06:47:40;;;;;;;16.65;6.03;;;11.70;99.90;;;;;;7384976;19;20015;-78
2024/02/21 06:50:09;;;;;;;15.45;6.47;;;11.70;99.90;;;;;;7384772;19;20023;-78
2024/02/21 06:52:39;;;;;;;14.32;6.50;;;11.70;99.90;;;;;;7384480;19;20078;-78
2024/02/21 06:55:08;;;;;;;21.80;6.68;;;11.70;99.90;;;;;;7384751;19;20003;-78
2024/02/21 06:57:37;;;;;;;17.98;7.15;;;11.80;99.90;;;;;;7405923;19;20042;-78
2024/02/21 07:00:10;;;;;;;17.42;7.00;;;11.80;99.90;;;;;;7384097;19;20070;-78
2024/02/21 07:02:39;;;;;;;21.90;8.05;;;11.70;99.90;;;;;;7382934;19;20007;-77
2024/02/21 07:05:10;;;;;;;25.40;8.50;;;11.80;99.90;;;;;;7381979;19;20380;-78
2024/02/21 07:07:40;;;;;;;19.48;7.97;;;11.80;99.90;;;;;;7381704;19;20023;-77
2024/02/21 07:10:09;;;;;;;21.58;5.97;;;11.80;99.90;;;;;;7384256;19;20019;-77
2024/02/21 07:12:38;;;;;;;19.55;6.75;;;11.80;99.90;;;;;;7402439;19;20015;-77
2024/02/21 07:15:10;;;;;;;23.38;6.32;;;11.90;99.90;;;;;;7381735;19;20034;-77
2024/02/21 07:17:38;;;;;;;22.75;6.35;;;11.80;99.90;;;;;;7384341;19;20019;-77
2024/02/21 07:20:09;;;;;;;16.40;6.35;;;11.80;99.90;;;;;;7383499;19;20067;-78
2024/02/21 07:22:38;;;;;;;28.45;7.63;;;11.80;99.90;;;;;;7382105;19;20042;-77
2024/02/21 07:25:08;;;;;;;17.15;5.93;;;11.80;99.90;;;;;;7382500;19;20022;-77
2024/02/21 07:27:37;;;;;;;16.67;5.57;;;11.80;99.90;;;;;;7404492;19;20028;-78
2024/02/21 07:30:11;;;;;;;12.25;6.80;;;11.80;99.90;;;;;;7382923;19;20858;-77
2024/02/21 07:32:40;;;;;;;18.40;6.55;;;11.80;99.90;;;;;;7382920;19;20017;-78
2024/02/21 07:35:11;;;;;;;20.13;7.25;;;11.90;99.90;;;;;;7383099;19;20023;-77
2024/02/21 07:37:40;;;;;;;;;;;11.90;99.90;;;;;;7383915;19;20245;-77
2024/02/21 07:40:14;;;;;;;15.75;6.28;;;12.00;99.90;;;;;;7380019;19;19915;-77
2024/02/21 07:42:43;;;;;;;31.38;6.95;;;12.00;99.90;;;;;;7400297;19;20069;-77
2024/02/21 07:45:15;;;;;;;16.10;6.55;;;11.90;99.90;;;;;;7379190;19;20007;-77
2024/02/21 07:47:43;;;;;;;17.55;6.78;;;11.90;99.90;;;;;;7379339;19;20016;-77
2024/02/21 07:50:13;;;;;;;14.48;6.22;;;12.00;99.90;;;;;;7380387;19;20484;-76
2024/02/21 07:52:42;;;;;;;10.90;6.25;;;12.00;99.90;;;;;;7381367;19;20357;-77
2024/02/21 07:55:11;;;;;;;16.05;6.05;;;12.00;99.90;;;;;;7381197;19;20022;-78
2024/02/21 07:57:40;;;;;;;23.10;7.38;;;12.00;99.90;;;;;;7403054;19;20066;-77
2024/02/21 08:00:17;;;;;;;21.58;7.65;;;12.00;99.90;;;;;;7379422;19;20062;-77
2024/02/21 08:02:49;;;;;;;17.73;8.02;;;12.10;99.90;;;;;;7380088;19;20243;-78
2024/02/21 08:05:18;;;;;;;24.17;7.93;;;12.10;99.90;;;;;;7381567;19;20023;-79
2024/02/21 08:07:47;;;;;;;19.08;6.68;;;12.10;99.90;;;;;;7382862;19;20027;-79
2024/02/21 08:10:15;;;;;;;16.23;5.97;;;12.20;99.90;;;;;;7384548;19;20014;-77
2024/02/21 08:12:44;;;;;;;33.67;7.47;;;12.20;99.90;;;;;;7404204;19;20003;-77
2024/02/21 08:15:15;;;;;;;16.02;5.93;;;12.20;99.90;;;;;;7381341;19;20019;-77
2024/02/21 08:17:50;;;;;;;15.63;6.28;;;12.20;99.90;;;;;;7378856;19;20035;-79
2024/02/21 08:20:19;;;;;;;20.17;7.18;;;12.20;99.90;;;;;;7381779;19;20003;-78
2024/02/21 08:22:47;;;;;;;17.80;6.55;;;12.30;99.90;;;;;;7380948;19;20066;-79
2024/02/21 08:25:16;;;;;;;13.10;6.55;;;12.30;99.90;;;;;;7385068;19;20010;-79
2024/02/21 08:27:52;;;;;;;14.48;7.15;;;12.30;99.90;;;;;;7407485;19;20015;-78
2024/02/21 08:30:21;;;;;;;17.83;6.93;;;12.30;99.90;;;;;;7381265;19;20358;-77
2024/02/21 08:32:53;;;;;;;19.73;7.05;;;12.30;99.90;;;;;;7380440;19;20058;-78
2024/02/21 08:35:23;;;;;;;15.60;6.95;;;12.30;99.90;;;;;;7381715;19;20107;-79
2024/02/21 08:37:51;;;;;;;17.63;6.07;;;12.40;99.90;;;;;;7383020;19;20007;-80
2024/02/21 08:40:21;;;;;;;17.88;8.00;;;12.40;99.90;;;;;;7382625;19;20011;-77
2024/02/21 08:42:50;;;;;;;14.27;6.50;;;12.40;99.90;;;;;;7401537;19;20003;-78
2024/02/21 08:45:18;;;;;;;15.88;6.60;;;12.40;99.90;;;;;;7380864;19;20010;-79
2024/02/21 08:47:47;;;;;;;18.10;5.97;;;12.40;99.90;;;;;;7387284;19;20588;-78
2024/02/21 08:50:19;;;;;;;18.85;5.78;;;12.50;99.90;;;;;;7395259;19;20006;-78
2024/02/21 08:52:47;;;;;;;23.13;5.78;;;12.50;99.90;;;;;;7396753;19;20024;-78
2024/02/21 08:55:16;;;;;;;20.75;6.22;;;12.60;99.90;;;;;;7395672;19;20010;-77
2024/02/21 08:57:45;;;;;;;18.60;5.57;;;12.60;99.90;;;;;;7416750;19;20007;-78
2024/02/21 09:00:15;;;;;;;11.18;5.18;;;12.60;99.90;;;;;;7395248;19;20023;-78
2024/02/21 09:02:45;;;;;;;14.27;5.75;;;12.60;99.90;;;;;;7394245;19;20003;-79
2024/02/21 09:05:14;;;;;;;14.70;5.78;;;12.60;99.90;;;;;;7383607;19;20006;-78
2024/02/21 09:07:45;;;;;;;13.88;5.95;;;12.70;99.90;;;;;;7385631;19;20007;-78
2024/02/21 09:10:14;;;;;;;14.48;5.38;;;12.70;99.90;;;;;;7382198;19;20009;-79
2024/02/21 09:12:43;;;;;;;12.77;5.10;;;12.70;99.90;;;;;;7401775;19;20007;-79
2024/02/21 09:15:13;;;;;;;16.42;5.50;;;12.80;99.90;;;;;;7379569;19;20006;-79
2024/02/21 09:17:41;;;;;;;17.58;4.93;;;12.80;99.90;;;;;;7378799;19;19999;-79
2024/02/21 09:20:16;;;;;;;17.65;5.40;;;12.80;99.90;;;;;;7382601;19;20007;-79
2024/02/21 09:22:47;;;;;;;18.13;5.68;;;12.80;99.90;;;;;;7381756;19;20003;-79
2024/02/21 09:25:17;;;;;;;20.52;5.00;;;12.80;99.90;;;;;;7382732;19;20003;-79
2024/02/21 09:27:47;;;;;;;14.02;5.55;;;12.90;99.90;;;;;;7402198;19;20007;-78
2024/02/21 09:30:16;;;;;;;11.18;5.10;;;12.90;99.90;;;;;;7382738;19;20010;-78
2024/02/21 09:32:45;;;;;;;12.90;5.25;;;12.90;99.90;;;;;;7386234;19;20031;-78
2024/02/21 09:35:13;;;;;;;15.70;5.03;;;13.00;99.90;;;;;;7385739;19;20011;-78
2024/02/21 09:37:42;;;;;;;15.48;5.05;;;13.00;99.90;;;;;;7386675;19;20058;-78
2024/02/21 09:40:18;;;;;;;9.18;5.55;;;13.00;99.90;;;;;;7386883;19;20281;-79
2024/02/21 09:42:49;;;;;;;13.23;5.18;;;12.90;99.90;;;;;;7408503;19;20062;-78
2024/02/21 09:45:23;;;;;;;13.57;5.50;;;12.90;99.90;;;;;;7386264;19;20060;-79
2024/02/21 09:48:19;;;;;;;12.70;5.00;;;13.00;99.90;;;;;;7385388;19;20572;-79
2024/02/21 09:50:51;;;;;;;14.18;5.07;;;12.90;99.90;;;;;;7385883;19;20336;-78
2024/02/21 09:53:22;;;;;;;15.85;5.10;;;13.00;99.90;;;;;;7384914;19;20014;-80
2024/02/21 09:55:55;;;;;;;12.53;5.43;;;12.80;99.90;;;;;;7384802;19;20007;-80
2024/02/21 09:58:27;;;;;;;15.48;5.05;;;12.90;99.90;;;;;;7385759;19;20011;-78
2024/02/21 10:00:57;;;;;;;18.33;5.47;;;12.90;99.90;;;;;;7410132;19;20010;-79
2024/02/21 10:03:25;;;;;;;12.50;4.60;;;12.80;99.90;;;;;;7385993;19;20027;-78
2024/02/21 10:05:54;;;;;;;13.88;4.95;;;12.90;99.90;;;;;;7387380;19;20010;-78
2024/02/21 10:08:23;;;;;;;21.17;4.95;;;12.80;99.90;;;;;;7384235;19;20014;-78
2024/02/21 10:10:58;;;;;;;14.30;4.60;;;12.90;99.90;;;;;;7385414;19;20006;-79
2024/02/21 10:13:29;;;;;;;19.33;4.60;;;13.00;99.90;;;;;;7386300;19;20240;-79
2024/02/21 10:16:05;;;;;;;9.50;4.28;;;13.00;99.90;;;;;;7411191;19;20011;-78
2024/02/21 10:18:34;;;;;;;7.97;4.47;;;13.00;99.90;;;;;;7389796;19;20010;-79
2024/02/21 10:21:04;;;;;;;12.15;4.68;;;12.90;99.90;;;;;;7386908;19;20385;-80
2024/02/21 10:23:49;;;;;;;11.27;4.63;;;13.00;99.90;;;;;;7382290;19;20006;-79
2024/02/21 10:26:22;;;;;;;11.90;4.15;;;12.90;99.90;;;;;;7404625;19;20023;-79
2024/02/21 10:28:51;;;;;;;15.20;4.28;;;12.80;99.90;;;;;;7384136;19;20006;-79
2024/02/21 10:31:27;;;;;;;11.68;3.78;;;12.80;99.90;;;;;;7382124;19;20062;-78
2024/02/21 10:34:02;;;;;;;12.85;4.07;;;12.80;99.90;;;;;;7406825;19;20024;-80
2024/02/21 10:36:32;;;;;;;10.75;3.80;;;12.70;99.90;;;;;;7384129;19;20855;-79
2024/02/21 10:39:00;;;;;;;10.32;4.47;;;12.90;99.90;;;;;;7384364;19;20010;-78
2024/02/21 10:41:34;;;;;;;12.30;3.78;;;12.90;99.90;;;;;;7383595;19;20070;-80
2024/02/21 10:44:06;;;;;;;13.80;4.07;;;12.90;99.90;;;;;;7382221;19;20007;-79
2024/02/21 10:46:37;;;;;;;20.27;4.22;;;13.00;99.90;;;;;;7382171;19;20011;-79
2024/02/21 10:49:09;;;;;;;;;;;12.70;99.90;;;;;;7404507;19;20551;-79
2024/02/21 10:51:43;;;;;;;9.70;3.55;;;12.90;99.90;;;;;;7384294;19;19924;-79
2024/02/21 10:54:23;;;;;;;10.63;3.70;;;12.90;99.90;;;;;;7384235;19;19999;-79
2024/02/21 10:56:56;;;;;;;9.00;4.40;;;13.10;99.90;;;;;;7385614;19;20003;-79
2024/02/21 10:59:26;;;;;;;7.90;3.60;;;13.20;99.90;;;;;;7386991;19;20003;-79
2024/02/21 11:01:56;;;;;;;12.20;4.20;;;13.20;99.90;;;;;;7386054;19;20364;-79
2024/02/21 11:04:26;;;;;;;15.57;4.57;;;13.30;99.90;;;;;;7381698;19;20011;-79
2024/02/21 11:06:55;;;;;;;13.88;4.28;;;13.40;99.90;;;;;;7406562;19;20007;-80
2024/02/21 11:09:33;;;;;;;11.13;4.75;;;13.50;99.90;;;;;;7384316;19;20011;-79
2024/02/21 11:12:06;;;;;;;8.52;4.43;;;13.40;99.90;;;;;;7386640;19;20014;-80
2024/02/21 11:14:36;;;;;;;9.55;4.18;;;13.50;99.90;;;;;;7386779;19;20019;-79
2024/02/21 11:17:16;;;;;;;8.43;4.97;;;13.60;99.90;;;;;;7385203;19;19998;-79
2024/02/21 11:19:45;;;;;;;14.70;4.78;;;13.60;99.90;;;;;;7383276;19;20232;-78
2024/02/21 11:22:19;;;;;;;10.57;4.65;;;13.40;99.90;;;;;;7400426;19;20023;-78
2024/02/21 11:24:48;;;;;;;12.98;4.97;;;13.50;99.90;;;;;;7403230;19;20014;-79
2024/02/21 11:27:24;;;;;;;9.30;4.43;;;13.60;99.90;;;;;;7380377;19;20007;-78
2024/02/21 11:29:59;;;;;;;14.20;4.72;;;13.40;99.90;;;;;;7384118;19;20007;-79
2024/02/21 11:32:29;;;;;;;8.65;4.40;;;13.20;99.90;;;;;;7382569;19;20003;-78
2024/02/21 11:35:01;;;;;;;15.25;4.43;;;13.40;99.90;;;;;;7384644;19;20034;-78
2024/02/21 11:37:30;;;;;;;12.13;4.57;;;12.90;99.90;;;;;;7385212;19;20021;-79
2024/02/21 11:40:00;;;;;;;12.27;4.78;;;12.90;99.90;;;;;;7403886;19;20023;-78
2024/02/21 11:42:32;;;;;;;13.10;4.18;;;13.10;99.90;;;;;;7383983;19;20007;-78
2024/02/21 11:45:02;;;;;;;13.82;4.25;;;12.90;99.90;;;;;;7399970;19;20145;-78
2024/02/21 11:47:31;;;;;;;11.55;4.30;;;13.00;99.90;;;;;;7401176;19;20003;-78
2024/02/21 11:50:00;;;;;;;11.55;4.97;;;13.20;99.90;;;;;;7396434;19;20006;-77
2024/02/21 11:52:29;;;;;;;12.48;4.20;;;13.50;99.90;;;;;;7393758;19;20010;-78
2024/02/21 11:55:04;;;;;;;13.13;4.55;;;13.30;99.90;;;;;;7420670;19;20219;-77
2024/02/21 11:57:41;;;;;;;12.73;4.35;;;13.40;99.90;;;;;;7388874;19;20010;-78
2024/02/21 12:00:17;;;;;;;10.88;4.25;;;13.60;99.90;;;;;;7382148;19;20019;-78
2024/02/21 12:02:47;;;;;;;8.75;3.97;;;13.70;99.90;;;;;;7381581;19;20231;-79
2024/02/21 12:05:16;;;;;;;9.85;4.38;;;13.80;99.90;;;;;;7381521;19;20010;-77
2024/02/21 12:07:45;;;;;;;18.45;4.43;;;13.70;99.90;;;;;;7384669;19;20010;-79
2024/02/21 12:10:15;;;;;;;13.00;4.60;;;13.60;99.90;;;;;;7409586;19;20251;-80
2024/02/21 12:12:46;;;;;;;12.43;5.05;;;13.60;99.90;;;;;;7384270;19;20006;-79
2024/02/21 12:15:15;;;;;;;14.73;4.22;;;13.70;99.90;;;;;;7381971;19;20023;-79
2024/02/21 12:17:44;;;;;;;15.30;4.47;;;13.40;99.90;;;;;;7380918;19;20235;-78
2024/02/21 12:20:15;;;;;;;8.90;3.90;;;13.60;99.90;;;;;;7381937;19;20010;-79
2024/02/21 12:22:45;;;;;;;12.60;4.00;;;13.70;99.90;;;;;;7382002;19;20014;-78
2024/02/21 12:25:22;;;;;;;13.13;4.03;;;13.70;99.90;;;;;;7402397;19;20054;-79
2024/02/21 12:27:54;;;;;;;7.20;3.50;;;13.90;99.90;;;;;;7381471;19;20029;-78
2024/02/21 12:30:22;;;;;;;7.72;3.33;;;13.80;99.90;;;;;;7379843;19;20007;-78
2024/02/21 12:32:51;;;;;;;8.38;3.63;;;13.90;99.90;;;;;;7380149;19;20006;-78
2024/02/21 12:35:20;;;;;;;8.52;3.60;;;13.90;99.90;;;;;;7379910;19;20114;-78
2024/02/21 12:37:49;;;;;;;12.85;4.13;;;13.90;99.90;;;;;;7380637;19;20019;-78
2024/02/21 12:40:17;;;;;;;9.98;4.55;;;14.00;99.90;;;;;;7401036;19;20010;-79
2024/02/21 12:42:48;;;;;;;10.48;4.18;;;13.80;99.90;;;;;;7379277;19;20003;-79
2024/02/21 12:45:19;;;;;;;10.05;4.32;;;13.90;99.90;;;;;;7379664;19;20028;-78
2024/02/21 12:47:48;;;;;;;;;;;14.00;99.90;;;;;;7381356;19;20465;-78
2024/02/21 12:50:19;;;;;;;9.75;3.92;;;13.50;99.90;;;;;;7383398;19;19915;-79
2024/02/21 12:52:49;;;;;;;15.25;4.10;;;13.70;99.90;;;;;;7385320;19;20011;-78